Wetterdaten: aktuell Dienstag, 05.05.2026 22:45
Datum Zeit Temp. A. Feuchte A. Luftdruck Regen Wind Richtung Richtung Sonnenschein Solar Windböen
05.05.2026 22:45 14,4 °C 87 % 1008,0 hPa 0,2 l/m² 5,3 km/h (1 Bft) W-SW 242 ° 0 min 0 W/m² 33,8 km/h (5 Bft)
05.05.2026 21:45 15,1 °C 83 % 1006,2 hPa 0,0 l/m² 9,8 km/h (2 Bft) NO 48 ° 0 min 0 W/m² 25,7 km/h (4 Bft)
05.05.2026 20:45 15,7 °C 82 % 1006,6 hPa 0,0 l/m² 6,7 km/h (2 Bft) N 5 ° 0 min 0 W/m² 16,1 km/h (3 Bft)
05.05.2026 19:45 16,1 °C 80 % 1006,6 hPa 0,0 l/m² 4,9 km/h (1 Bft) NO 47 ° 0 min 0 W/m² 16,1 km/h (3 Bft)
05.05.2026 18:45 16,9 °C 77 % 1007,1 hPa 0,0 l/m² 5,8 km/h (2 Bft) N-NO 30 ° 0 min 13 W/m² 14,5 km/h (3 Bft)
05.05.2026 17:45 17,8 °C 74 % 1007,1 hPa 0,0 l/m² 7,7 km/h (2 Bft) N 355 ° 0 min 46 W/m² 19,3 km/h (3 Bft)
05.05.2026 16:45 19,0 °C 71 % 1007,2 hPa 0,0 l/m² 9,6 km/h (2 Bft) N-NW 338 ° 0 min 182 W/m² 19,3 km/h (3 Bft)
05.05.2026 15:45 18,7 °C 71 % 1007,9 hPa 0,0 l/m² 6,2 km/h (2 Bft) NO 49 ° 0 min 190 W/m² 16,1 km/h (3 Bft)
05.05.2026 14:45 18,9 °C 73 % 1008,2 hPa 0,0 l/m² 9,3 km/h (2 Bft) N-NO 25 ° 15 min 221 W/m² 17,7 km/h (3 Bft)
05.05.2026 13:45 20,2 °C 67 % 1008,2 hPa 0,0 l/m² 11,4 km/h (2 Bft) N-NO 29 ° 45 min 395 W/m² 20,9 km/h (4 Bft)
05.05.2026 12:45 20,0 °C 68 % 1008,5 hPa 0,0 l/m² 9,4 km/h (2 Bft) NW 325 ° 60 min 446 W/m² 19,3 km/h (3 Bft)
05.05.2026 11:45 19,7 °C 70 % 1009,1 hPa 0,0 l/m² 7,7 km/h (2 Bft) N 355 ° 60 min 620 W/m² 16,1 km/h (3 Bft)
05.05.2026 10:45 18,9 °C 74 % 1009,2 hPa 0,0 l/m² 7,4 km/h (2 Bft) NW 318 ° 30 min 672 W/m² 17,7 km/h (3 Bft)
05.05.2026 09:45 19,2 °C 72 % 1009,5 hPa 0,0 l/m² 4,2 km/h (1 Bft) W-SW 244 ° 60 min 704 W/m² 11,3 km/h (2 Bft)
05.05.2026 08:45 16,1 °C 79 % 1010,0 hPa 0,0 l/m² 4,0 km/h (1 Bft) NW 306 ° 0 min 336 W/m² 12,9 km/h (3 Bft)
05.05.2026 07:45 14,3 °C 83 % 1010,1 hPa 0,0 l/m² 1,8 km/h (1 Bft) W-NW 292 ° 0 min 100 W/m² 6,4 km/h (2 Bft)
05.05.2026 06:45 14,0 °C 83 % 1010,2 hPa 0,0 l/m² 2,4 km/h (1 Bft) W-NW 290 ° 0 min 76 W/m² 9,7 km/h (2 Bft)
05.05.2026 05:45 12,8 °C 86 % 1009,7 hPa 0,0 l/m² 0,0 km/h (0 Bft) S-SW 196 ° 0 min 36 W/m² 0,0 km/h (0 Bft)
05.05.2026 04:45 12,4 °C 86 % 1009,8 hPa 0,0 l/m² 0,0 km/h (0 Bft) S-SW 195 ° 0 min 3 W/m² 0,0 km/h (0 Bft)
05.05.2026 03:45 13,3 °C 84 % 1010,4 hPa 0,0 l/m² 0,0 km/h (0 Bft) S-SW 195 ° 0 min 0 W/m² 0,0 km/h (0 Bft)
05.05.2026 02:45 14,1 °C 82 % 1010,9 hPa 0,0 l/m² 0,3 km/h (0 Bft) S-SW 195 ° 0 min 0 W/m² 3,2 km/h (1 Bft)
05.05.2026 01:45 14,2 °C 80 % 1011,8 hPa 0,0 l/m² 1,4 km/h (1 Bft) W-SW 242 ° 0 min 0 W/m² 4,8 km/h (1 Bft)
05.05.2026 00:45 14,6 °C 78 % 1012,0 hPa 0,0 l/m² 1,9 km/h (1 Bft) NW 309 ° 0 min 0 W/m² 4,8 km/h (1 Bft)
04.05.2026 23:45 13,8 °C 81 % 1012,2 hPa 0,0 l/m² 0,0 km/h (0 Bft) NW 309 ° 0 min 0 W/m² 0,0 km/h (0 Bft)
04.05.2026 23:00 14,4 °C 79 % 1012,6 hPa 0,0 l/m² 0,5 km/h (0 Bft) NW 307 ° 0 min 0 W/m² 3,2 km/h (1 Bft)
_ Min-Zeit 05:00 13:15 21:30 - 23:45 - - - - 23:45
Minimum _ 12,2 °C 63 % 1006,2 hPa - 0,0 km/h (0 Bft) - - - - 0,0 km/h (0 Bft)
_ Max-Zeit 13:30 04:30 23:00 22:45 13:45 - - 09:00 09:45 22:45
Maximum _ 20,9 °C 87 % 1012,6 hPa 0,2 l/m² 11,4 km/h
N-NO (2 Bft)
- - 15 min 704 W/m² 33,8 km/h
W (5 Bft)
Durchschnitt _ 16,2 °C 78 % 1009,3 hPa #0,2 l/m² 4,3 km/h (1 Bft) S-SW - #4:30 h 178 W/m² 11,4 km/h (2 Bft)